createdAt,value
2019-02-21T00:01:07.614Z,28.63
2019-02-21T00:03:43.139Z,26.00
2019-02-21T00:06:16.260Z,28.03
2019-02-21T00:08:50.502Z,29.23
2019-02-21T00:11:44.909Z,27.00
2019-02-21T00:14:30.593Z,28.87
2019-02-21T00:17:16.128Z,28.73
2019-02-21T00:23:12.037Z,26.40
2019-02-21T00:26:00.677Z,26.97
2019-02-21T00:28:35.983Z,28.27
2019-02-21T00:31:10.052Z,26.37
2019-02-21T00:33:59.063Z,23.33
2019-02-21T00:36:51.044Z,29.00
2019-02-21T00:39:43.133Z,30.13
2019-02-21T00:42:20.568Z,26.30
2019-02-21T00:44:54.698Z,36.33
2019-02-21T00:47:28.701Z,29.07
2019-02-21T00:50:20.633Z,31.50
2019-02-21T00:53:00.424Z,27.73
2019-02-21T00:55:34.552Z,33.77
2019-02-21T00:58:22.165Z,31.33
2019-02-21T01:01:06.762Z,36.20
2019-02-21T01:03:58.575Z,32.07
2019-02-21T01:06:32.827Z,30.90
2019-02-21T01:09:07.120Z,29.13
2019-02-21T01:11:52.795Z,31.33
2019-02-21T01:14:26.775Z,34.33
2019-02-21T01:17:00.644Z,33.80
2019-02-21T01:19:34.576Z,34.07
2019-02-21T01:22:26.707Z,33.83
2019-02-21T01:25:02.365Z,31.20
2019-02-21T01:27:35.543Z,35.07
2019-02-21T01:30:09.291Z,29.37
2019-02-21T01:32:47.655Z,32.60
2019-02-21T01:35:21.877Z,34.90
2019-02-21T01:38:10.153Z,31.90
2019-02-21T01:40:44.390Z,29.13
2019-02-21T01:43:18.969Z,30.43
2019-02-21T01:45:54.258Z,29.87
2019-02-21T01:48:49.823Z,31.77
2019-02-21T01:51:24.334Z,30.20
2019-02-21T01:54:49.340Z,33.80
2019-02-21T01:57:23.417Z,29.60
2019-02-21T01:59:57.755Z,34.20
2019-02-21T02:02:49.003Z,33.33
2019-02-21T02:05:41.957Z,32.53
2019-02-21T02:08:16.158Z,31.03
2019-02-21T02:11:07.656Z,27.77
2019-02-21T02:13:59.831Z,29.87
2019-02-21T02:16:44.658Z,32.30
2019-02-21T02:19:29.593Z,30.97
2019-02-21T02:22:15.016Z,32.90
2019-02-21T02:24:49.114Z,30.30
2019-02-21T02:27:22.319Z,31.13
2019-02-21T02:29:56.510Z,33.70
2019-02-21T02:32:31.068Z,29.33
2019-02-21T02:35:05.108Z,28.53
2019-02-21T02:37:39.213Z,29.37
2019-02-21T02:40:25.173Z,30.90
2019-02-21T02:43:16.879Z,28.67
2019-02-21T02:46:01.637Z,28.50
2019-02-21T02:48:52.649Z,31.90
2019-02-21T02:51:25.760Z,28.27
2019-02-21T02:54:16.820Z,32.20
2019-02-21T02:57:08.500Z,27.53
2019-02-21T02:59:44.403Z,29.13
2019-02-21T03:02:18.848Z,28.97
2019-02-21T03:04:53.050Z,28.43
2019-02-21T03:07:32.028Z,31.50
2019-02-21T03:10:07.246Z,29.17
2019-02-21T03:12:41.481Z,30.13
2019-02-21T03:15:16.266Z,31.80
2019-02-21T03:17:56.592Z,31.67
2019-02-21T03:20:30.653Z,30.47
2019-02-21T03:23:18.278Z,29.77
2019-02-21T03:26:09.972Z,29.37
2019-02-21T03:28:43.997Z,31.00
2019-02-21T03:31:18.417Z,34.03
2019-02-21T03:34:06.832Z,35.10
2019-02-21T03:36:40.928Z,30.37
2019-02-21T03:39:15.132Z,35.50
2019-02-21T03:41:49.418Z,29.10
2019-02-21T03:44:40.236Z,28.03
2019-02-21T03:47:35.247Z,32.07
2019-02-21T03:50:20.745Z,30.63
2019-02-21T03:53:13.673Z,27.47
2019-02-21T03:55:46.809Z,36.03
2019-02-21T03:58:32.247Z,31.83
2019-02-21T04:01:16.975Z,31.87
2019-02-21T04:04:08.140Z,31.87
2019-02-21T04:06:42.254Z,32.40
2019-02-21T04:09:26.792Z,30.03
2019-02-21T04:12:11.807Z,32.60
2019-02-21T04:15:03.624Z,35.63
2019-02-21T04:17:38.212Z,30.60
2019-02-21T04:20:12.311Z,34.30
2019-02-21T04:23:03.478Z,29.23
2019-02-21T04:25:48.826Z,34.80
2019-02-21T04:28:34.491Z,33.53
2019-02-21T04:31:08.265Z,29.67
2019-02-21T04:33:42.681Z,36.17
2019-02-21T04:36:30.477Z,35.93
2019-02-21T04:39:15.362Z,30.40
2019-02-21T04:42:00.651Z,36.70
2019-02-21T04:44:46.392Z,35.43
2019-02-21T04:47:20.538Z,34.27
2019-02-21T04:49:54.515Z,31.47
2019-02-21T04:52:39.492Z,33.63
2019-02-21T04:55:13.982Z,35.30
2019-02-21T04:57:47.765Z,30.93
2019-02-21T05:00:21.661Z,32.80
2019-02-21T05:02:55.784Z,36.23
2019-02-21T05:05:41.138Z,37.03
2019-02-21T05:08:15.299Z,33.03
2019-02-21T05:10:49.721Z,34.23
2019-02-21T05:13:23.661Z,32.90
2019-02-21T05:15:58.079Z,32.70
2019-02-21T05:18:49.617Z,33.97
2019-02-21T05:21:41.430Z,33.13
2019-02-21T05:24:15.245Z,34.43
2019-02-21T05:26:53.474Z,33.57
2019-02-21T05:29:27.475Z,34.57
2019-02-21T05:32:21.139Z,35.00
2019-02-21T05:35:40.366Z,34.67
2019-02-21T05:38:47.721Z,34.97
2019-02-21T05:41:48.187Z,33.47
2019-02-21T05:45:06.472Z,34.97
2019-02-21T05:48:01.202Z,37.47
2019-02-21T05:51:12.074Z,33.57
2019-02-21T05:54:25.695Z,34.43
2019-02-21T05:57:04.215Z,35.50
2019-02-21T06:00:05.481Z,36.80
2019-02-21T06:03:24.535Z,34.77
2019-02-21T06:06:07.523Z,35.93
2019-02-21T06:08:53.136Z,37.40
2019-02-21T06:12:07.688Z,34.70
2019-02-21T08:27:50.800Z,33.33
2019-02-21T08:30:51.733Z,37.70
2019-02-21T08:33:34.404Z,36.70
2019-02-21T08:46:53.638Z,36.50
2019-02-21T08:49:29.624Z,35.13
2019-02-21T08:52:03.395Z,32.73
2019-02-21T08:54:59.574Z,35.30
2019-02-21T08:57:38.166Z,35.50
2019-02-21T09:00:12.424Z,36.57
2019-02-21T09:02:48.081Z,34.40
2019-02-21T09:05:21.989Z,34.13
2019-02-21T09:07:55.447Z,35.27
2019-02-21T09:10:29.787Z,36.53
2019-02-21T09:13:23.855Z,33.57
2019-02-21T09:16:09.728Z,34.20
2019-02-21T09:18:58.020Z,37.03
2019-02-21T09:21:32.072Z,35.57
2019-02-21T09:24:35.064Z,39.77
2019-02-21T09:26:57.388Z,32.47
2019-02-21T09:29:46.526Z,35.10
2019-02-21T09:32:32.957Z,34.80
2019-02-21T09:35:09.064Z,38.43
2019-02-21T09:38:00.900Z,37.63
2019-02-21T09:40:34.952Z,40.73
2019-02-21T09:43:25.035Z,47.07
2019-02-21T09:45:59.613Z,48.30
2019-02-21T09:48:36.297Z,42.37
2019-02-21T09:51:10.270Z,42.70
2019-02-21T09:53:44.419Z,36.00
2019-02-21T09:56:29.523Z,42.30
2019-02-21T09:58:54.525Z,43.57
2019-02-21T10:01:28.892Z,43.70
2019-02-21T10:04:18.933Z,42.37
2019-02-21T10:07:09.238Z,40.03
2019-02-21T10:09:54.935Z,37.67
2019-02-21T10:12:28.858Z,43.30
2019-02-21T10:15:16.730Z,38.70
2019-02-21T10:18:00.666Z,34.00
2019-02-21T10:20:50.385Z,37.80
2019-02-21T10:23:24.561Z,38.90
2019-02-21T10:26:16.339Z,38.50
2019-02-21T10:29:08.226Z,36.83
2019-02-21T10:31:59.147Z,37.10
2019-02-21T10:34:52.976Z,35.67
2019-02-21T10:37:26.317Z,42.07
2019-02-21T10:40:00.515Z,36.93
2019-02-21T10:42:44.568Z,34.03
2019-02-21T10:45:19.102Z,32.93
2019-02-21T10:48:04.372Z,30.77
2019-02-21T10:50:50.006Z,29.97
2019-02-21T10:53:34.533Z,28.90
2019-02-21T10:56:19.841Z,33.27
2019-02-21T10:59:05.310Z,33.70
2019-02-21T11:01:38.241Z,37.13
2019-02-21T11:04:11.956Z,33.07
2019-02-21T11:06:45.764Z,33.13
2019-02-21T11:09:23.098Z,32.57
2019-02-21T11:12:06.840Z,34.97
2019-02-21T11:14:47.532Z,31.40
2019-02-21T11:17:27.749Z,30.03
2019-02-21T11:20:14.453Z,35.97
2019-02-21T11:22:59.460Z,38.97
2019-02-21T11:25:44.601Z,31.00
2019-02-21T11:28:17.866Z,31.80
2019-02-21T11:30:51.840Z,39.93
2019-02-21T11:33:25.610Z,32.00
2019-02-21T11:36:19.841Z,32.33
2019-02-21T11:38:57.693Z,31.40
2019-02-21T11:41:42.111Z,36.57
2019-02-21T11:44:15.620Z,28.53
2019-02-21T11:46:49.516Z,35.73
2019-02-21T11:49:25.975Z,34.97
2019-02-21T11:52:09.908Z,33.27
2019-02-21T11:54:53.776Z,33.73
2019-02-21T11:57:27.278Z,34.40
2019-02-21T12:00:16.167Z,36.70
2019-02-21T12:03:03.955Z,36.50
2019-02-21T12:05:38.193Z,34.83
2019-02-21T12:08:23.574Z,32.83
2019-02-21T12:11:13.640Z,35.17
2019-02-21T12:13:47.154Z,38.97
2019-02-21T12:16:21.485Z,40.33
2019-02-21T12:19:13.678Z,35.50
2019-02-21T12:21:59.895Z,39.17
2019-02-21T12:24:34.141Z,36.60
2019-02-21T12:27:07.651Z,35.33
2019-02-21T12:29:41.197Z,40.53
2019-02-21T12:32:14.721Z,37.47
2019-02-21T12:34:48.633Z,37.97
2019-02-21T12:37:33.207Z,36.03
2019-02-21T12:40:09.094Z,37.73
2019-02-21T12:42:42.789Z,35.10
2019-02-21T12:45:17.764Z,36.77
2019-02-21T12:47:54.065Z,35.40
2019-02-21T12:50:44.583Z,36.03
2019-02-21T12:53:22.424Z,42.13
2019-02-21T12:56:08.705Z,40.57
2019-02-21T12:58:53.964Z,37.93
2019-02-21T13:25:18.821Z,36.73
2019-02-21T13:27:52.929Z,36.63
2019-02-21T13:30:27.342Z,37.33
2019-02-21T13:33:12.692Z,36.83
2019-02-21T13:54:26.146Z,37.13
2019-02-21T13:56:59.574Z,36.20
2019-02-21T13:59:34.975Z,37.57
2019-02-21T14:02:08.622Z,38.67
2019-02-21T14:04:42.130Z,32.67
2019-02-21T14:07:15.521Z,35.77
2019-02-21T14:09:49.296Z,35.43
2019-02-21T14:12:26.402Z,33.77
2019-02-21T14:14:59.619Z,31.37
2019-02-21T14:17:32.761Z,31.27
2019-02-21T14:20:08.177Z,35.33
2019-02-21T14:23:00.789Z,34.37
2019-02-21T14:25:40.923Z,35.43
2019-02-21T14:28:12.120Z,32.60
2019-02-21T14:31:06.476Z,32.07
2019-02-21T14:56:06.044Z,37.33
2019-02-21T14:58:39.963Z,34.63
2019-02-21T15:01:13.440Z,37.93
2019-02-21T15:03:48.075Z,36.07
2019-02-21T15:06:27.699Z,38.63
2019-02-21T15:35:37.714Z,41.83
2019-02-21T15:38:19.505Z,37.07
2019-02-21T15:40:45.510Z,38.87
2019-02-21T15:44:08.890Z,36.53
2019-02-21T15:59:18.612Z,34.13
2019-02-21T16:01:51.920Z,36.07
2019-02-21T16:04:26.080Z,35.30
2019-02-21T16:06:58.815Z,35.70
2019-02-21T16:09:32.523Z,35.77
2019-02-21T16:12:06.471Z,38.00
2019-02-21T16:14:40.218Z,37.77
2019-02-21T16:17:13.447Z,37.60
2019-02-21T16:19:47.722Z,43.33
2019-02-21T16:22:36.472Z,49.00
2019-02-21T16:25:12.215Z,48.40
2019-02-21T16:27:45.944Z,48.20
2019-02-21T16:30:21.739Z,52.43
2019-02-21T16:32:55.550Z,54.60
2019-02-21T16:35:42.206Z,52.97
2019-02-21T16:38:14.834Z,56.20
2019-02-21T16:40:46.345Z,58.67
2019-02-21T17:31:51.964Z,74.53
2019-02-21T17:34:25.660Z,70.37
2019-02-21T17:36:59.491Z,71.87
2019-02-21T17:39:32.723Z,72.27
2019-02-21T17:42:06.760Z,73.57
2019-02-21T17:44:40.983Z,74.37
2019-02-21T17:58:57.810Z,62.83
2019-02-21T18:01:40.424Z,68.63
2019-02-21T18:04:13.957Z,63.53
2019-02-21T18:06:47.546Z,65.77
2019-02-21T18:09:21.111Z,69.37
2019-02-21T18:11:54.536Z,66.13
2019-02-21T18:14:28.504Z,70.27
2019-02-21T18:17:02.152Z,63.67
2019-02-21T18:19:35.779Z,64.07
2019-02-21T18:22:08.919Z,62.93
2019-02-21T18:24:42.521Z,60.50
2019-02-21T18:27:17.150Z,60.70
2019-02-21T18:30:01.804Z,68.10
2019-02-21T18:32:35.206Z,59.13
2019-02-21T18:35:08.946Z,60.53
2019-02-21T18:37:47.450Z,65.97
2019-02-21T18:40:20.733Z,58.00
2019-02-21T18:42:55.160Z,60.03
2019-02-21T18:45:29.257Z,65.87
2019-02-21T18:48:02.662Z,58.07
2019-02-21T18:50:46.133Z,63.17
2019-02-21T18:53:20.547Z,58.20
2019-02-21T18:55:54.109Z,56.63
2019-02-21T18:58:29.133Z,58.03
2019-02-21T19:01:02.343Z,51.80
2019-02-21T19:03:35.953Z,56.53
2019-02-21T19:06:22.257Z,52.83
2019-02-21T19:09:05.682Z,46.50
2019-02-21T19:11:41.290Z,47.33
2019-02-21T19:14:15.563Z,47.27
2019-02-21T19:17:00.178Z,49.23
2019-02-21T19:19:40.148Z,49.97
2019-02-21T19:22:15.841Z,50.40
2019-02-21T19:24:49.052Z,52.37
2019-02-21T19:27:37.194Z,52.17
2019-02-21T19:30:08.834Z,47.57
2019-02-21T19:32:42.836Z,47.17
2019-02-21T19:35:16.776Z,48.67
2019-02-21T19:37:49.954Z,46.40
2019-02-21T19:40:23.439Z,46.37
2019-02-21T19:42:56.748Z,43.07
2019-02-21T19:45:30.748Z,43.33
2019-02-21T19:48:04.418Z,42.17
2019-02-21T19:50:37.702Z,46.13
2019-02-21T19:53:14.246Z,46.80
2019-02-21T19:55:47.381Z,46.50
2019-02-21T19:58:30.053Z,49.57
2019-02-21T20:01:03.592Z,42.30
2019-02-21T20:03:38.205Z,43.47
2019-02-21T20:06:12.049Z,45.00
2019-02-21T20:08:46.630Z,42.60
2019-02-21T20:11:29.290Z,42.03
2019-02-21T20:14:02.405Z,37.30
2019-02-21T20:16:36.088Z,39.80
2019-02-21T20:19:10.033Z,38.30
2019-02-21T20:21:54.617Z,39.43
2019-02-21T20:24:37.416Z,30.07
2019-02-21T20:27:20.871Z,39.80
2019-02-21T20:29:54.332Z,34.83
2019-02-21T20:32:28.455Z,34.50
2019-02-21T20:35:02.738Z,34.17
2019-02-21T20:37:44.852Z,33.77
2019-02-21T20:40:22.243Z,38.03
2019-02-21T20:43:04.568Z,35.10
2019-02-21T20:45:38.163Z,37.37
2019-02-21T20:48:11.816Z,31.00
2019-02-21T20:50:56.927Z,31.47
2019-02-21T20:53:35.350Z,32.73
2019-02-21T20:56:08.823Z,29.77
2019-02-21T20:58:42.234Z,30.47
2019-02-21T21:01:15.757Z,28.60
2019-02-21T21:03:49.237Z,26.37
2019-02-21T21:06:32.655Z,26.53
2019-02-21T21:09:06.665Z,28.20
2019-02-21T21:11:49.449Z,28.30
2019-02-21T21:14:22.293Z,24.20
2019-02-21T21:16:56.085Z,22.67
2019-02-21T21:19:29.635Z,24.07
2019-02-21T21:22:02.910Z,25.53
2019-02-21T21:24:36.023Z,24.43
2019-02-21T21:27:10.557Z,26.13
2019-02-21T21:29:44.113Z,28.17
2019-02-21T21:32:17.336Z,24.67
2019-02-21T21:34:50.888Z,24.17
2019-02-21T21:37:25.077Z,26.93
2019-02-21T21:39:58.576Z,28.80
2019-02-21T21:42:31.863Z,27.43
2019-02-21T21:45:05.923Z,28.67
2019-02-21T21:47:39.785Z,29.80
2019-02-21T21:50:30.282Z,30.33
2019-02-21T21:53:12.373Z,33.00
2019-02-21T21:55:46.600Z,33.17
2019-02-21T21:58:29.456Z,33.93
2019-02-21T22:01:02.298Z,34.57
2019-02-21T22:03:36.177Z,35.50
2019-02-21T22:06:09.730Z,37.43
2019-02-21T22:08:45.906Z,37.00
2019-02-21T22:11:27.725Z,35.20
2019-02-21T22:14:02.079Z,38.67
2019-02-21T22:16:44.239Z,39.63
2019-02-21T22:19:17.716Z,40.13
2019-02-21T22:21:51.309Z,40.50
2019-02-21T22:24:25.621Z,40.77
2019-02-21T22:27:19.316Z,39.10
2019-02-21T22:29:52.985Z,42.57
2019-02-21T22:32:26.631Z,40.73
2019-02-21T22:35:00.305Z,44.47
2019-02-21T22:37:34.292Z,45.27
2019-02-21T22:40:16.221Z,49.60
2019-02-21T22:42:49.387Z,48.40
2019-02-21T22:45:25.162Z,56.70
2019-02-21T22:47:58.611Z,54.80
2019-02-21T22:50:32.525Z,60.17
2019-02-21T22:53:15.757Z,63.80
2019-02-21T22:55:58.333Z,67.40
2019-02-21T22:58:32.203Z,59.20
2019-02-21T23:01:33.308Z,67.87
2019-02-21T23:04:54.672Z,61.87
2019-02-21T23:07:48.972Z,67.20
2019-02-21T23:10:23.406Z,70.83
2019-02-21T23:12:56.840Z,78.43
2019-02-21T23:15:30.383Z,76.97
2019-02-21T23:18:15.998Z,77.67
2019-02-21T23:20:58.329Z,86.30
2019-02-21T23:23:32.241Z,84.57
2019-02-21T23:26:15.232Z,85.47
2019-02-21T23:28:57.610Z,90.07
2019-02-21T23:31:31.277Z,77.57
2019-02-21T23:34:06.318Z,83.07
2019-02-21T23:36:39.789Z,78.27
2019-02-21T23:39:12.739Z,84.40
2019-02-21T23:41:54.906Z,78.97
2019-02-21T23:44:28.204Z,85.10
2019-02-21T23:47:01.354Z,86.17
2019-02-21T23:49:35.087Z,88.70
2019-02-21T23:52:09.004Z,83.60
2019-02-21T23:54:42.115Z,93.27
2019-02-21T23:57:15.956Z,87.83
2019-02-21T23:59:49.529Z,92.90
